sensor_id;sensor_type;location;lat;lon;timestamp;P1;durP1;ratioP1;P2;durP2;ratioP2
7444;SDS011;3764;48.126;11.594;2023-03-08T00:00:43;15.32;;;9.10;;
7444;SDS011;3764;48.126;11.594;2023-03-08T00:03:11;14.90;;;9.20;;
7444;SDS011;3764;48.126;11.594;2023-03-08T00:05:40;14.88;;;8.95;;
7444;SDS011;3764;48.126;11.594;2023-03-08T00:08:08;19.02;;;8.95;;
7444;SDS011;3764;48.126;11.594;2023-03-08T00:10:35;13.15;;;8.85;;
7444;SDS011;3764;48.126;11.594;2023-03-08T00:13:03;14.38;;;9.38;;
7444;SDS011;3764;48.126;11.594;2023-03-08T00:15:30;15.00;;;8.38;;
7444;SDS011;3764;48.126;11.594;2023-03-08T00:17:57;15.90;;;8.73;;
7444;SDS011;3764;48.126;11.594;2023-03-08T00:20:24;12.88;;;8.98;;
7444;SDS011;3764;48.126;11.594;2023-03-08T00:22:53;15.05;;;9.27;;
7444;SDS011;3764;48.126;11.594;2023-03-08T00:25:20;17.17;;;9.05;;
7444;SDS011;3764;48.126;11.594;2023-03-08T00:27:47;14.50;;;8.60;;
7444;SDS011;3764;48.126;11.594;2023-03-08T00:30:14;12.88;;;8.48;;
7444;SDS011;3764;48.126;11.594;2023-03-08T00:32:42;19.08;;;10.52;;
7444;SDS011;3764;48.126;11.594;2023-03-08T00:35:09;10.77;;;7.20;;
7444;SDS011;3764;48.126;11.594;2023-03-08T00:37:36;12.82;;;8.25;;
7444;SDS011;3764;48.126;11.594;2023-03-08T00:40:05;12.07;;;7.50;;
7444;SDS011;3764;48.126;11.594;2023-03-08T00:42:34;13.80;;;9.00;;
7444;SDS011;3764;48.126;11.594;2023-03-08T00:45:01;16.13;;;8.32;;
7444;SDS011;3764;48.126;11.594;2023-03-08T00:47:28;13.32;;;8.55;;
7444;SDS011;3764;48.126;11.594;2023-03-08T00:49:55;13.13;;;8.07;;
7444;SDS011;3764;48.126;11.594;2023-03-08T00:52:22;13.65;;;8.25;;
7444;SDS011;3764;48.126;11.594;2023-03-08T00:54:50;12.95;;;7.22;;
7444;SDS011;3764;48.126;11.594;2023-03-08T00:57:18;12.88;;;7.82;;
7444;SDS011;3764;48.126;11.594;2023-03-08T00:59:45;14.90;;;8.82;;
7444;SDS011;3764;48.126;11.594;2023-03-08T01:02:13;14.23;;;8.45;;
7444;SDS011;3764;48.126;11.594;2023-03-08T01:04:40;15.43;;;8.25;;
7444;SDS011;3764;48.126;11.594;2023-03-08T01:07:07;12.65;;;8.00;;
7444;SDS011;3764;48.126;11.594;2023-03-08T01:09:34;13.95;;;8.50;;
7444;SDS011;3764;48.126;11.594;2023-03-08T01:12:01;10.93;;;7.55;;
7444;SDS011;3764;48.126;11.594;2023-03-08T01:14:30;13.02;;;7.43;;
7444;SDS011;3764;48.126;11.594;2023-03-08T01:16:57;12.38;;;6.55;;
7444;SDS011;3764;48.126;11.594;2023-03-08T01:19:24;11.65;;;6.85;;
7444;SDS011;3764;48.126;11.594;2023-03-08T01:21:51;11.30;;;6.45;;
7444;SDS011;3764;48.126;11.594;2023-03-08T01:24:18;11.98;;;7.53;;
7444;SDS011;3764;48.126;11.594;2023-03-08T01:26:45;13.52;;;7.60;;
7444;SDS011;3764;48.126;11.594;2023-03-08T01:29:13;13.82;;;7.97;;
7444;SDS011;3764;48.126;11.594;2023-03-08T01:31:41;11.27;;;7.00;;
7444;SDS011;3764;48.126;11.594;2023-03-08T01:34:08;12.88;;;7.80;;
7444;SDS011;3764;48.126;11.594;2023-03-08T01:36:35;11.05;;;7.15;;
7444;SDS011;3764;48.126;11.594;2023-03-08T01:39:02;12.88;;;7.40;;
7444;SDS011;3764;48.126;11.594;2023-03-08T01:41:30;13.77;;;8.05;;
7444;SDS011;3764;48.126;11.594;2023-03-08T01:43:57;10.95;;;6.75;;
7444;SDS011;3764;48.126;11.594;2023-03-08T01:46:25;10.38;;;7.60;;
7444;SDS011;3764;48.126;11.594;2023-03-08T01:48:57;15.13;;;8.48;;
7444;SDS011;3764;48.126;11.594;2023-03-08T01:51:29;16.30;;;8.13;;
7444;SDS011;3764;48.126;11.594;2023-03-08T01:54:02;14.88;;;8.30;;
7444;SDS011;3764;48.126;11.594;2023-03-08T01:56:33;16.17;;;8.25;;
7444;SDS011;3764;48.126;11.594;2023-03-08T01:59:03;13.00;;;7.32;;
7444;SDS011;3764;48.126;11.594;2023-03-08T02:01:30;20.98;;;7.57;;
7444;SDS011;3764;48.126;11.594;2023-03-08T02:04:00;11.32;;;7.80;;
7444;SDS011;3764;48.126;11.594;2023-03-08T02:06:28;11.93;;;7.40;;
7444;SDS011;3764;48.126;11.594;2023-03-08T02:08:55;16.02;;;8.45;;
7444;SDS011;3764;48.126;11.594;2023-03-08T02:11:27;13.57;;;8.90;;
7444;SDS011;3764;48.126;11.594;2023-03-08T02:13:54;14.73;;;8.10;;
7444;SDS011;3764;48.126;11.594;2023-03-08T02:16:22;11.93;;;7.70;;
7444;SDS011;3764;48.126;11.594;2023-03-08T02:18:53;15.13;;;8.10;;
7444;SDS011;3764;48.126;11.594;2023-03-08T02:21:24;14.27;;;9.00;;
7444;SDS011;3764;48.126;11.594;2023-03-08T02:23:53;14.77;;;7.88;;
7444;SDS011;3764;48.126;11.594;2023-03-08T02:26:21;10.52;;;7.28;;
7444;SDS011;3764;48.126;11.594;2023-03-08T02:28:48;14.98;;;8.57;;
7444;SDS011;3764;48.126;11.594;2023-03-08T02:31:15;15.60;;;8.85;;
7444;SDS011;3764;48.126;11.594;2023-03-08T02:33:42;11.48;;;6.90;;
7444;SDS011;3764;48.126;11.594;2023-03-08T02:36:09;12.63;;;7.63;;
7444;SDS011;3764;48.126;11.594;2023-03-08T02:38:36;12.13;;;7.13;;
7444;SDS011;3764;48.126;11.594;2023-03-08T02:41:05;15.05;;;7.70;;
7444;SDS011;3764;48.126;11.594;2023-03-08T02:43:32;10.43;;;6.35;;
7444;SDS011;3764;48.126;11.594;2023-03-08T02:45:59;14.75;;;8.43;;
7444;SDS011;3764;48.126;11.594;2023-03-08T02:48:26;13.90;;;7.50;;
7444;SDS011;3764;48.126;11.594;2023-03-08T02:50:53;13.57;;;8.70;;
7444;SDS011;3764;48.126;11.594;2023-03-08T02:53:20;14.90;;;8.30;;
7444;SDS011;3764;48.126;11.594;2023-03-08T02:55:47;15.27;;;8.20;;
7444;SDS011;3764;48.126;11.594;2023-03-08T02:58:16;14.43;;;8.10;;
7444;SDS011;3764;48.126;11.594;2023-03-08T03:00:43;13.25;;;8.55;;
7444;SDS011;3764;48.126;11.594;2023-03-08T03:03:10;13.32;;;7.88;;
7444;SDS011;3764;48.126;11.594;2023-03-08T03:05:39;15.43;;;8.40;;
7444;SDS011;3764;48.126;11.594;2023-03-08T03:08:08;13.48;;;8.35;;
7444;SDS011;3764;48.126;11.594;2023-03-08T03:10:35;17.35;;;8.65;;
7444;SDS011;3764;48.126;11.594;2023-03-08T03:13:03;14.80;;;8.02;;
7444;SDS011;3764;48.126;11.594;2023-03-08T03:15:32;14.30;;;9.07;;
7444;SDS011;3764;48.126;11.594;2023-03-08T03:18:02;19.52;;;8.75;;
7444;SDS011;3764;48.126;11.594;2023-03-08T03:20:30;14.75;;;8.63;;
7444;SDS011;3764;48.126;11.594;2023-03-08T03:22:58;12.43;;;8.07;;
7444;SDS011;3764;48.126;11.594;2023-03-08T03:25:25;16.10;;;8.48;;
7444;SDS011;3764;48.126;11.594;2023-03-08T03:27:53;13.98;;;8.43;;
7444;SDS011;3764;48.126;11.594;2023-03-08T03:30:20;15.68;;;8.18;;
7444;SDS011;3764;48.126;11.594;2023-03-08T03:32:49;13.98;;;8.50;;
7444;SDS011;3764;48.126;11.594;2023-03-08T03:35:16;16.63;;;9.13;;
7444;SDS011;3764;48.126;11.594;2023-03-08T03:37:43;13.18;;;9.35;;
7444;SDS011;3764;48.126;11.594;2023-03-08T03:40:11;14.75;;;9.32;;
7444;SDS011;3764;48.126;11.594;2023-03-08T03:42:39;16.30;;;9.75;;
7444;SDS011;3764;48.126;11.594;2023-03-08T03:45:06;13.93;;;8.82;;
7444;SDS011;3764;48.126;11.594;2023-03-08T03:47:34;16.52;;;9.23;;
7444;SDS011;3764;48.126;11.594;2023-03-08T03:50:02;16.70;;;9.65;;
7444;SDS011;3764;48.126;11.594;2023-03-08T03:52:30;14.80;;;8.75;;
7444;SDS011;3764;48.126;11.594;2023-03-08T03:54:57;13.90;;;8.18;;
7444;SDS011;3764;48.126;11.594;2023-03-08T03:57:24;14.65;;;9.88;;
7444;SDS011;3764;48.126;11.594;2023-03-08T03:59:51;19.77;;;9.57;;
7444;SDS011;3764;48.126;11.594;2023-03-08T04:02:18;15.32;;;9.18;;
7444;SDS011;3764;48.126;11.594;2023-03-08T04:04:47;18.38;;;9.63;;
7444;SDS011;3764;48.126;11.594;2023-03-08T04:07:17;14.63;;;8.30;;
7444;SDS011;3764;48.126;11.594;2023-03-08T04:09:44;14.80;;;8.60;;
7444;SDS011;3764;48.126;11.594;2023-03-08T04:12:11;13.05;;;9.15;;
7444;SDS011;3764;48.126;11.594;2023-03-08T04:14:39;15.23;;;8.40;;
7444;SDS011;3764;48.126;11.594;2023-03-08T04:17:06;14.40;;;8.98;;
7444;SDS011;3764;48.126;11.594;2023-03-08T04:19:34;14.10;;;9.27;;
7444;SDS011;3764;48.126;11.594;2023-03-08T04:22:01;17.10;;;8.40;;
7444;SDS011;3764;48.126;11.594;2023-03-08T04:24:29;17.50;;;9.95;;
7444;SDS011;3764;48.126;11.594;2023-03-08T04:26:56;17.73;;;9.80;;
7444;SDS011;3764;48.126;11.594;2023-03-08T04:29:24;16.13;;;8.13;;
7444;SDS011;3764;48.126;11.594;2023-03-08T04:31:51;14.18;;;9.20;;
7444;SDS011;3764;48.126;11.594;2023-03-08T04:34:19;14.40;;;8.65;;
7444;SDS011;3764;48.126;11.594;2023-03-08T04:36:46;18.02;;;9.15;;
7444;SDS011;3764;48.126;11.594;2023-03-08T04:39:13;20.10;;;12.20;;
7444;SDS011;3764;48.126;11.594;2023-03-08T04:41:42;16.42;;;9.07;;
7444;SDS011;3764;48.126;11.594;2023-03-08T04:44:09;20.35;;;8.77;;
7444;SDS011;3764;48.126;11.594;2023-03-08T04:46:36;16.35;;;8.45;;
7444;SDS011;3764;48.126;11.594;2023-03-08T04:49:03;14.00;;;8.85;;
7444;SDS011;3764;48.126;11.594;2023-03-08T04:51:31;15.60;;;9.63;;
7444;SDS011;3764;48.126;11.594;2023-03-08T04:53:58;17.42;;;10.15;;
7444;SDS011;3764;48.126;11.594;2023-03-08T04:56:25;16.70;;;10.50;;
7444;SDS011;3764;48.126;11.594;2023-03-08T04:58:53;20.52;;;9.18;;
7444;SDS011;3764;48.126;11.594;2023-03-08T05:01:21;16.17;;;9.27;;
7444;SDS011;3764;48.126;11.594;2023-03-08T05:03:50;13.23;;;8.77;;
7444;SDS011;3764;48.126;11.594;2023-03-08T05:06:17;15.55;;;8.88;;
7444;SDS011;3764;48.126;11.594;2023-03-08T05:08:45;18.65;;;10.18;;
7444;SDS011;3764;48.126;11.594;2023-03-08T05:11:14;15.88;;;10.05;;
7444;SDS011;3764;48.126;11.594;2023-03-08T05:13:43;20.52;;;10.20;;
7444;SDS011;3764;48.126;11.594;2023-03-08T05:16:12;18.42;;;10.35;;
7444;SDS011;3764;48.126;11.594;2023-03-08T05:18:39;14.05;;;8.80;;
7444;SDS011;3764;48.126;11.594;2023-03-08T05:21:08;13.98;;;9.43;;
7444;SDS011;3764;48.126;11.594;2023-03-08T05:23:37;21.23;;;11.73;;
7444;SDS011;3764;48.126;11.594;2023-03-08T05:26:05;25.13;;;10.73;;
7444;SDS011;3764;48.126;11.594;2023-03-08T05:28:33;15.68;;;9.82;;
7444;SDS011;3764;48.126;11.594;2023-03-08T05:31:02;16.60;;;10.70;;
7444;SDS011;3764;48.126;11.594;2023-03-08T05:33:32;18.25;;;11.50;;
7444;SDS011;3764;48.126;11.594;2023-03-08T05:35:59;17.05;;;10.50;;
7444;SDS011;3764;48.126;11.594;2023-03-08T05:38:27;21.02;;;11.65;;
7444;SDS011;3764;48.126;11.594;2023-03-08T05:40:54;22.38;;;11.70;;
7444;SDS011;3764;48.126;11.594;2023-03-08T05:43:25;22.80;;;11.38;;
7444;SDS011;3764;48.126;11.594;2023-03-08T05:45:53;23.17;;;13.10;;
7444;SDS011;3764;48.126;11.594;2023-03-08T05:48:22;18.30;;;11.07;;
7444;SDS011;3764;48.126;11.594;2023-03-08T05:50:50;19.85;;;10.27;;
7444;SDS011;3764;48.126;11.594;2023-03-08T05:53:18;20.92;;;10.95;;
7444;SDS011;3764;48.126;11.594;2023-03-08T05:55:45;20.30;;;11.60;;
7444;SDS011;3764;48.126;11.594;2023-03-08T05:58:12;22.83;;;12.05;;
7444;SDS011;3764;48.126;11.594;2023-03-08T06:00:40;23.35;;;11.68;;
7444;SDS011;3764;48.126;11.594;2023-03-08T06:03:07;18.60;;;11.77;;
7444;SDS011;3764;48.126;11.594;2023-03-08T06:05:34;25.88;;;12.18;;
7444;SDS011;3764;48.126;11.594;2023-03-08T06:08:03;21.45;;;11.63;;
7444;SDS011;3764;48.126;11.594;2023-03-08T06:10:30;18.88;;;11.13;;
7444;SDS011;3764;48.126;11.594;2023-03-08T06:12:57;21.13;;;12.02;;
7444;SDS011;3764;48.126;11.594;2023-03-08T06:15:24;22.80;;;12.68;;
7444;SDS011;3764;48.126;11.594;2023-03-08T06:17:51;18.60;;;11.48;;
7444;SDS011;3764;48.126;11.594;2023-03-08T06:20:19;20.33;;;10.63;;
7444;SDS011;3764;48.126;11.594;2023-03-08T06:22:46;18.95;;;11.50;;
7444;SDS011;3764;48.126;11.594;2023-03-08T06:25:15;21.08;;;11.75;;
7444;SDS011;3764;48.126;11.594;2023-03-08T06:27:42;19.02;;;12.13;;
7444;SDS011;3764;48.126;11.594;2023-03-08T06:30:09;24.58;;;12.40;;
7444;SDS011;3764;48.126;11.594;2023-03-08T06:32:37;22.13;;;11.38;;
7444;SDS011;3764;48.126;11.594;2023-03-08T06:35:05;18.40;;;11.25;;
7444;SDS011;3764;48.126;11.594;2023-03-08T06:37:32;22.50;;;11.50;;
7444;SDS011;3764;48.126;11.594;2023-03-08T06:40:00;24.30;;;12.75;;
7444;SDS011;3764;48.126;11.594;2023-03-08T06:42:31;20.90;;;11.85;;
7444;SDS011;3764;48.126;11.594;2023-03-08T06:44:58;23.05;;;13.07;;
7444;SDS011;3764;48.126;11.594;2023-03-08T06:47:25;26.40;;;12.52;;
7444;SDS011;3764;48.126;11.594;2023-03-08T06:49:55;21.60;;;12.55;;
7444;SDS011;3764;48.126;11.594;2023-03-08T06:52:22;21.35;;;12.50;;
7444;SDS011;3764;48.126;11.594;2023-03-08T06:54:49;25.48;;;13.25;;
7444;SDS011;3764;48.126;11.594;2023-03-08T06:57:16;27.00;;;12.98;;
7444;SDS011;3764;48.126;11.594;2023-03-08T06:59:44;21.02;;;12.48;;
7444;SDS011;3764;48.126;11.594;2023-03-08T07:02:11;22.45;;;13.48;;
7444;SDS011;3764;48.126;11.594;2023-03-08T07:04:38;25.00;;;12.48;;
7444;SDS011;3764;48.126;11.594;2023-03-08T07:07:06;30.35;;;15.80;;
7444;SDS011;3764;48.126;11.594;2023-03-08T07:09:33;20.95;;;12.80;;
7444;SDS011;3764;48.126;11.594;2023-03-08T07:12:00;21.17;;;12.18;;
7444;SDS011;3764;48.126;11.594;2023-03-08T07:14:27;20.45;;;13.05;;
7444;SDS011;3764;48.126;11.594;2023-03-08T07:16:55;19.20;;;10.90;;
7444;SDS011;3764;48.126;11.594;2023-03-08T07:19:22;19.15;;;12.50;;
7444;SDS011;3764;48.126;11.594;2023-03-08T07:21:50;20.20;;;11.45;;
7444;SDS011;3764;48.126;11.594;2023-03-08T07:24:17;24.42;;;11.98;;
7444;SDS011;3764;48.126;11.594;2023-03-08T07:26:44;18.73;;;12.20;;
7444;SDS011;3764;48.126;11.594;2023-03-08T07:29:11;21.02;;;12.05;;
7444;SDS011;3764;48.126;11.594;2023-03-08T07:31:38;23.40;;;13.23;;
7444;SDS011;3764;48.126;11.594;2023-03-08T07:34:07;23.55;;;11.35;;
7444;SDS011;3764;48.126;11.594;2023-03-08T07:36:34;25.10;;;13.07;;
7444;SDS011;3764;48.126;11.594;2023-03-08T07:39:02;20.20;;;12.95;;
7444;SDS011;3764;48.126;11.594;2023-03-08T07:41:29;23.25;;;13.18;;
7444;SDS011;3764;48.126;11.594;2023-03-08T07:43:58;20.98;;;13.10;;
7444;SDS011;3764;48.126;11.594;2023-03-08T07:46:26;20.52;;;12.75;;
7444;SDS011;3764;48.126;11.594;2023-03-08T07:48:53;21.77;;;13.52;;
7444;SDS011;3764;48.126;11.594;2023-03-08T07:51:22;24.48;;;10.65;;
7444;SDS011;3764;48.126;11.594;2023-03-08T07:53:50;24.95;;;13.48;;
7444;SDS011;3764;48.126;11.594;2023-03-08T07:56:17;28.08;;;13.43;;
7444;SDS011;3764;48.126;11.594;2023-03-08T07:58:44;19.60;;;12.25;;
7444;SDS011;3764;48.126;11.594;2023-03-08T08:01:12;23.35;;;12.98;;
7444;SDS011;3764;48.126;11.594;2023-03-08T08:03:40;22.00;;;11.88;;
7444;SDS011;3764;48.126;11.594;2023-03-08T08:06:07;23.30;;;13.20;;
7444;SDS011;3764;48.126;11.594;2023-03-08T08:08:36;25.88;;;11.75;;
7444;SDS011;3764;48.126;11.594;2023-03-08T08:11:08;20.15;;;11.90;;
7444;SDS011;3764;48.126;11.594;2023-03-08T08:13:36;18.65;;;11.98;;
7444;SDS011;3764;48.126;11.594;2023-03-08T08:16:04;17.27;;;11.70;;
7444;SDS011;3764;48.126;11.594;2023-03-08T08:18:32;17.85;;;11.10;;
7444;SDS011;3764;48.126;11.594;2023-03-08T08:21:00;18.70;;;11.70;;
7444;SDS011;3764;48.126;11.594;2023-03-08T08:23:28;25.30;;;11.90;;
7444;SDS011;3764;48.126;11.594;2023-03-08T08:25:56;21.33;;;13.40;;
7444;SDS011;3764;48.126;11.594;2023-03-08T08:28:24;19.67;;;10.88;;
7444;SDS011;3764;48.126;11.594;2023-03-08T08:30:55;25.10;;;12.02;;
7444;SDS011;3764;48.126;11.594;2023-03-08T08:33:23;20.15;;;10.82;;
7444;SDS011;3764;48.126;11.594;2023-03-08T08:35:50;18.58;;;10.85;;
7444;SDS011;3764;48.126;11.594;2023-03-08T08:38:17;20.88;;;11.85;;
7444;SDS011;3764;48.126;11.594;2023-03-08T08:40:44;17.63;;;10.45;;
7444;SDS011;3764;48.126;11.594;2023-03-08T08:43:13;16.98;;;10.02;;
7444;SDS011;3764;48.126;11.594;2023-03-08T08:45:43;18.67;;;10.68;;
7444;SDS011;3764;48.126;11.594;2023-03-08T08:48:10;25.33;;;12.63;;
7444;SDS011;3764;48.126;11.594;2023-03-08T08:50:38;20.75;;;12.15;;
7444;SDS011;3764;48.126;11.594;2023-03-08T08:53:05;21.73;;;11.55;;
7444;SDS011;3764;48.126;11.594;2023-03-08T08:55:32;22.23;;;11.65;;
7444;SDS011;3764;48.126;11.594;2023-03-08T08:58:00;19.70;;;11.30;;
7444;SDS011;3764;48.126;11.594;2023-03-08T09:00:29;18.13;;;10.45;;
7444;SDS011;3764;48.126;11.594;2023-03-08T09:02:57;17.73;;;11.30;;
7444;SDS011;3764;48.126;11.594;2023-03-08T09:05:24;14.27;;;10.20;;
7444;SDS011;3764;48.126;11.594;2023-03-08T09:07:52;17.35;;;11.07;;
7444;SDS011;3764;48.126;11.594;2023-03-08T09:10:19;16.90;;;11.60;;
7444;SDS011;3764;48.126;11.594;2023-03-08T09:12:47;19.25;;;11.43;;
7444;SDS011;3764;48.126;11.594;2023-03-08T09:15:14;16.08;;;11.35;;
7444;SDS011;3764;48.126;11.594;2023-03-08T09:17:43;23.02;;;13.43;;
7444;SDS011;3764;48.126;11.594;2023-03-08T09:20:10;16.80;;;10.05;;
7444;SDS011;3764;48.126;11.594;2023-03-08T09:22:38;19.38;;;11.68;;
7444;SDS011;3764;48.126;11.594;2023-03-08T09:25:06;17.83;;;11.75;;
7444;SDS011;3764;48.126;11.594;2023-03-08T09:27:34;18.98;;;11.77;;
7444;SDS011;3764;48.126;11.594;2023-03-08T09:30:02;26.85;;;11.98;;
7444;SDS011;3764;48.126;11.594;2023-03-08T09:32:31;21.70;;;12.80;;
7444;SDS011;3764;48.126;11.594;2023-03-08T09:35:00;21.38;;;11.45;;
7444;SDS011;3764;48.126;11.594;2023-03-08T09:37:29;21.33;;;12.90;;
7444;SDS011;3764;48.126;11.594;2023-03-08T09:39:56;21.35;;;13.75;;
7444;SDS011;3764;48.126;11.594;2023-03-08T09:42:24;21.23;;;12.90;;
7444;SDS011;3764;48.126;11.594;2023-03-08T09:45:03;24.38;;;13.50;;
7444;SDS011;3764;48.126;11.594;2023-03-08T09:47:36;22.63;;;13.55;;
7444;SDS011;3764;48.126;11.594;2023-03-08T09:50:13;20.00;;;12.52;;
7444;SDS011;3764;48.126;11.594;2023-03-08T09:52:57;19.42;;;12.52;;
7444;SDS011;3764;48.126;11.594;2023-03-08T09:55:30;28.80;;;14.60;;
7444;SDS011;3764;48.126;11.594;2023-03-08T09:57:59;22.90;;;13.48;;
7444;SDS011;3764;48.126;11.594;2023-03-08T10:00:30;21.98;;;13.05;;
7444;SDS011;3764;48.126;11.594;2023-03-08T10:03:03;23.17;;;13.07;;
7444;SDS011;3764;48.126;11.594;2023-03-08T10:05:46;21.98;;;13.18;;
7444;SDS011;3764;48.126;11.594;2023-03-08T10:08:19;26.90;;;12.50;;
7444;SDS011;3764;48.126;11.594;2023-03-08T10:10:51;22.48;;;12.55;;
7444;SDS011;3764;48.126;11.594;2023-03-08T10:13:34;28.00;;;13.82;;
7444;SDS011;3764;48.126;11.594;2023-03-08T10:16:10;24.17;;;12.38;;
7444;SDS011;3764;48.126;11.594;2023-03-08T10:18:43;21.27;;;14.00;;
7444;SDS011;3764;48.126;11.594;2023-03-08T10:21:17;22.70;;;13.77;;
7444;SDS011;3764;48.126;11.594;2023-03-08T10:23:47;29.13;;;15.15;;
7444;SDS011;3764;48.126;11.594;2023-03-08T10:26:23;21.35;;;13.13;;
7444;SDS011;3764;48.126;11.594;2023-03-08T10:28:51;25.02;;;14.30;;
7444;SDS011;3764;48.126;11.594;2023-03-08T10:31:19;22.30;;;13.10;;
7444;SDS011;3764;48.126;11.594;2023-03-08T10:33:52;18.63;;;12.50;;
7444;SDS011;3764;48.126;11.594;2023-03-08T10:36:29;22.58;;;12.05;;
7444;SDS011;3764;48.126;11.594;2023-03-08T10:38:57;16.73;;;11.95;;
7444;SDS011;3764;48.126;11.594;2023-03-08T10:41:26;22.67;;;13.07;;
7444;SDS011;3764;48.126;11.594;2023-03-08T10:43:57;23.85;;;13.27;;
7444;SDS011;3764;48.126;11.594;2023-03-08T10:46:25;28.63;;;14.63;;
7444;SDS011;3764;48.126;11.594;2023-03-08T10:49:04;22.65;;;12.60;;
7444;SDS011;3764;48.126;11.594;2023-03-08T10:51:34;21.00;;;13.07;;
7444;SDS011;3764;48.126;11.594;2023-03-08T10:54:02;29.05;;;13.73;;
7444;SDS011;3764;48.126;11.594;2023-03-08T10:56:32;20.92;;;13.05;;
7444;SDS011;3764;48.126;11.594;2023-03-08T10:59:03;24.80;;;14.00;;
7444;SDS011;3764;48.126;11.594;2023-03-08T11:01:32;20.98;;;12.02;;
7444;SDS011;3764;48.126;11.594;2023-03-08T11:04:00;23.83;;;12.30;;
7444;SDS011;3764;48.126;11.594;2023-03-08T11:06:29;20.00;;;12.48;;
7444;SDS011;3764;48.126;11.594;2023-03-08T11:08:59;19.23;;;11.35;;
7444;SDS011;3764;48.126;11.594;2023-03-08T11:11:27;12.95;;;8.15;;
7444;SDS011;3764;48.126;11.594;2023-03-08T11:14:07;21.38;;;11.05;;
7444;SDS011;3764;48.126;11.594;2023-03-08T11:16:40;16.42;;;9.68;;
7444;SDS011;3764;48.126;11.594;2023-03-08T11:19:28;15.45;;;10.10;;
7444;SDS011;3764;48.126;11.594;2023-03-08T11:22:03;18.15;;;11.05;;
7444;SDS011;3764;48.126;11.594;2023-03-08T11:24:54;15.60;;;9.80;;
7444;SDS011;3764;48.126;11.594;2023-03-08T11:27:58;13.95;;;8.57;;
7444;SDS011;3764;48.126;11.594;2023-03-08T11:30:36;11.55;;;7.10;;
7444;SDS011;3764;48.126;11.594;2023-03-08T11:36:04;15.63;;;8.05;;
7444;SDS011;3764;48.126;11.594;2023-03-08T11:38:34;11.90;;;7.05;;
7444;SDS011;3764;48.126;11.594;2023-03-08T11:41:05;14.43;;;8.23;;
7444;SDS011;3764;48.126;11.594;2023-03-08T11:43:45;20.48;;;8.25;;
7444;SDS011;3764;48.126;11.594;2023-03-08T11:46:21;12.55;;;7.95;;
7444;SDS011;3764;48.126;11.594;2023-03-08T11:48:59;15.07;;;7.60;;
7444;SDS011;3764;48.126;11.594;2023-03-08T11:51:37;13.25;;;8.30;;
7444;SDS011;3764;48.126;11.594;2023-03-08T11:54:11;14.15;;;8.20;;
7444;SDS011;3764;48.126;11.594;2023-03-08T11:56:48;12.13;;;7.60;;
7444;SDS011;3764;48.126;11.594;2023-03-08T11:59:20;17.88;;;8.40;;
7444;SDS011;3764;48.126;11.594;2023-03-08T12:01:54;14.45;;;7.85;;
7444;SDS011;3764;48.126;11.594;2023-03-08T12:04:28;18.23;;;10.10;;
7444;SDS011;3764;48.126;11.594;2023-03-08T12:07:02;12.60;;;8.68;;
7444;SDS011;3764;48.126;11.594;2023-03-08T12:09:33;14.55;;;8.60;;
7444;SDS011;3764;48.126;11.594;2023-03-08T12:12:08;15.48;;;7.93;;
7444;SDS011;3764;48.126;11.594;2023-03-08T12:14:41;12.07;;;6.30;;
7444;SDS011;3764;48.126;11.594;2023-03-08T12:17:16;15.00;;;8.23;;
7444;SDS011;3764;48.126;11.594;2023-03-08T12:19:46;11.23;;;6.25;;
7444;SDS011;3764;48.126;11.594;2023-03-08T12:22:21;12.52;;;8.35;;
7444;SDS011;3764;48.126;11.594;2023-03-08T12:24:57;13.13;;;7.25;;
7444;SDS011;3764;48.126;11.594;2023-03-08T12:27:34;11.30;;;7.35;;
7444;SDS011;3764;48.126;11.594;2023-03-08T12:30:10;12.98;;;6.90;;
7444;SDS011;3764;48.126;11.594;2023-03-08T12:32:44;9.30;;;5.70;;
7444;SDS011;3764;48.126;11.594;2023-03-08T12:35:26;11.32;;;5.50;;
7444;SDS011;3764;48.126;11.594;2023-03-08T12:37:55;9.50;;;5.00;;
7444;SDS011;3764;48.126;11.594;2023-03-08T12:40:28;10.57;;;6.00;;
7444;SDS011;3764;48.126;11.594;2023-03-08T12:43:10;10.88;;;5.47;;
7444;SDS011;3764;48.126;11.594;2023-03-08T12:45:39;9.90;;;5.78;;
7444;SDS011;3764;48.126;11.594;2023-03-08T12:48:08;9.32;;;5.22;;
7444;SDS011;3764;48.126;11.594;2023-03-08T12:50:54;9.35;;;5.20;;
7444;SDS011;3764;48.126;11.594;2023-03-08T12:53:27;7.05;;;4.18;;
7444;SDS011;3764;48.126;11.594;2023-03-08T12:56:01;4.90;;;4.07;;
7444;SDS011;3764;48.126;11.594;2023-03-08T12:58:32;8.65;;;4.68;;
7444;SDS011;3764;48.126;11.594;2023-03-08T13:01:03;10.20;;;4.65;;
7444;SDS011;3764;48.126;11.594;2023-03-08T13:03:36;7.60;;;4.25;;
7444;SDS011;3764;48.126;11.594;2023-03-08T13:06:15;6.95;;;4.55;;
7444;SDS011;3764;48.126;11.594;2023-03-08T13:09:12;6.20;;;4.15;;
7444;SDS011;3764;48.126;11.594;2023-03-08T13:11:47;6.28;;;4.00;;
7444;SDS011;3764;48.126;11.594;2023-03-08T13:14:25;5.90;;;4.07;;
7444;SDS011;3764;48.126;11.594;2023-03-08T13:16:53;8.23;;;3.90;;
7444;SDS011;3764;48.126;11.594;2023-03-08T13:19:22;7.00;;;3.83;;
7444;SDS011;3764;48.126;11.594;2023-03-08T13:21:57;4.85;;;2.65;;
7444;SDS011;3764;48.126;11.594;2023-03-08T13:24:34;3.22;;;2.03;;
7444;SDS011;3764;48.126;11.594;2023-03-08T13:27:12;3.40;;;1.65;;
7444;SDS011;3764;48.126;11.594;2023-03-08T13:29:48;2.72;;;1.20;;
7444;SDS011;3764;48.126;11.594;2023-03-08T13:32:16;2.50;;;1.70;;
7444;SDS011;3764;48.126;11.594;2023-03-08T13:34:46;1.67;;;0.95;;
7444;SDS011;3764;48.126;11.594;2023-03-08T13:37:25;3.58;;;1.13;;
7444;SDS011;3764;48.126;11.594;2023-03-08T13:39:53;2.55;;;1.33;;
7444;SDS011;3764;48.126;11.594;2023-03-08T13:42:23;2.60;;;1.10;;
7444;SDS011;3764;48.126;11.594;2023-03-08T13:45:06;2.60;;;1.00;;
7444;SDS011;3764;48.126;11.594;2023-03-08T13:47:36;2.10;;;0.90;;
7444;SDS011;3764;48.126;11.594;2023-03-08T13:50:05;2.60;;;0.90;;
7444;SDS011;3764;48.126;11.594;2023-03-08T13:52:34;1.63;;;0.85;;
7444;SDS011;3764;48.126;11.594;2023-03-08T13:55:04;3.80;;;1.25;;
7444;SDS011;3764;48.126;11.594;2023-03-08T13:57:34;2.85;;;1.23;;
7444;SDS011;3764;48.126;11.594;2023-03-08T14:00:19;7.07;;;1.20;;
7444;SDS011;3764;48.126;11.594;2023-03-08T14:02:50;3.83;;;1.02;;
7444;SDS011;3764;48.126;11.594;2023-03-08T14:05:18;2.58;;;1.13;;
7444;SDS011;3764;48.126;11.594;2023-03-08T14:07:58;1.60;;;1.20;;
7444;SDS011;3764;48.126;11.594;2023-03-08T14:10:35;3.05;;;1.20;;
7444;SDS011;3764;48.126;11.594;2023-03-08T14:13:05;2.75;;;0.85;;
7444;SDS011;3764;48.126;11.594;2023-03-08T14:15:46;2.53;;;1.25;;
7444;SDS011;3764;48.126;11.594;2023-03-08T14:18:18;4.97;;;1.00;;
7444;SDS011;3764;48.126;11.594;2023-03-08T14:20:57;3.00;;;1.40;;
7444;SDS011;3764;48.126;11.594;2023-03-08T14:23:29;2.45;;;1.00;;
7444;SDS011;3764;48.126;11.594;2023-03-08T14:25:58;2.10;;;1.02;;
7444;SDS011;3764;48.126;11.594;2023-03-08T14:31:25;1.92;;;1.10;;
7444;SDS011;3764;48.126;11.594;2023-03-08T14:33:54;1.60;;;0.90;;
7444;SDS011;3764;48.126;11.594;2023-03-08T14:36:23;1.95;;;0.80;;
7444;SDS011;3764;48.126;11.594;2023-03-08T14:38:51;1.40;;;0.77;;
7444;SDS011;3764;48.126;11.594;2023-03-08T14:41:27;3.63;;;0.90;;
7444;SDS011;3764;48.126;11.594;2023-03-08T14:43:56;4.28;;;1.05;;
7444;SDS011;3764;48.126;11.594;2023-03-08T14:46:25;5.60;;;1.27;;
7444;SDS011;3764;48.126;11.594;2023-03-08T14:48:58;2.30;;;1.20;;
7444;SDS011;3764;48.126;11.594;2023-03-08T14:51:27;1.67;;;0.90;;
7444;SDS011;3764;48.126;11.594;2023-03-08T14:53:56;1.40;;;0.90;;
7444;SDS011;3764;48.126;11.594;2023-03-08T14:56:25;4.93;;;1.13;;
7444;SDS011;3764;48.126;11.594;2023-03-08T14:58:57;4.15;;;1.50;;
7444;SDS011;3764;48.126;11.594;2023-03-08T15:01:29;3.90;;;1.10;;
7444;SDS011;3764;48.126;11.594;2023-03-08T15:03:58;3.15;;;1.10;;